28 Jul 2021 09:31 UTC 2021209+09:31 UTC

Overview Datums Bench Marks Data Query Site Visit Daily QC Messages Attributes

042: Nueces Delta 2

27° 53' 19" N   97° 34' 10" W
NUDE2
The Coastal Bend Bays & Estuaries Program Coastal Bend Bays and Estuaries Program

Station Information

Nueces Delta 2
Nueces Delta 2
more pictures
 
Station Name:Nueces Delta 2
DNR ID:042
Location:27° 53' 19" N, 97° 34' 10" W

Water Level Forecasts

Latest Observations

Series Metric English Marine Observed at
Water Temperature 28.6 °C 83.5 °F 83.5 °F Jul 28 04:24 CDT
00h07m ago
Salinity 6.100 psu 6.100 psu 6.100 psu Jul 28 04:24 CDT
00h07m ago

Maps

Nueces Delta 2
All Stations in Area
Entire Network
 

Recent Observations

Date/Time Water
Temp (°F)
Sal (psu)
Jul 28 04:00 CDT 83.5 6.100
Jul 28 03:00 CDT 83.1 6.100
Jul 28 02:00 CDT 83.8 6.100
Jul 28 01:00 CDT 84.7 6.100
Jul 28 00:00 CDT 85.3 6.100
Jul 27 23:00 CDT 86.0 6.000
Jul 27 22:00 CDT 86.7 6.000
Jul 27 21:00 CDT 88.5 6.000
Jul 27 20:00 CDT 90.9 5.900
Jul 27 19:00 CDT 93.6 5.800
Jul 27 18:00 CDT 97.0 5.900
Jul 27 17:00 CDT 99.3 6.100
Jul 27 16:00 CDT 100.6 6.500
Jul 27 15:00 CDT 100.9 6.700
Jul 27 14:00 CDT 91.2 6.600
Jul 27 13:00 CDT 89.1 6.600
Jul 27 12:00 CDT 86.5 6.600
Jul 27 11:00 CDT 83.5 6.600
Jul 27 10:00 CDT 81.1 6.700
Jul 27 09:00 CDT 80.2 6.700
Jul 27 08:00 CDT 80.2 6.600
Jul 27 07:00 CDT 80.6 6.300
Jul 27 06:00 CDT 81.5 6.100
Jul 27 05:00 CDT 82.2 6.000
Jul 27 04:00 CDT 85.5 5.900

Historical Data Availability